Somerton, Arizona
Current Conditions -  °F | °C
As of 1:57 AM on Friday 19 Dec 2014 (Local Time) from KNYL Reporting Station
Clear Clear  
Wind Chill: 49°   Ceiling: Unl
Heat Index: 49°   Visibility: 10mi
Dew Point: 43°   Wind: 0mph
Humidity: 80%   Direction: NA
Pressure: 30.19"   Gusts: NA
Location:  32.6°N, 114.71°W
Report Text: KNYL 190857Z 00000KT 10SM CLR 09/06 A3019 RMK AO2 SLP223 T00940061 55000
Loading
Personal Weather Stations






























Interactive Weather Map New forecast layout! Learn more

10-Day Weather Forecast

Advertisements
Track Severe Weather on mobile